sensor_id;sensor_type;location;lat;lon;timestamp;P1;durP1;ratioP1;P2;durP2;ratioP2
42666;SDS011;28280;49.646;14.130;2022-11-25T00:01:26;4.32;;;2.28;;
42666;SDS011;28280;49.646;14.130;2022-11-25T00:06:59;3.47;;;1.83;;
42666;SDS011;28280;49.646;14.130;2022-11-25T00:12:30;4.32;;;2.40;;
42666;SDS011;28280;49.646;14.130;2022-11-25T00:18:01;4.75;;;2.25;;
42666;SDS011;28280;49.646;14.130;2022-11-25T00:23:32;3.40;;;2.10;;
42666;SDS011;28280;49.646;14.130;2022-11-25T00:29:04;3.70;;;2.17;;
42666;SDS011;28280;49.646;14.130;2022-11-25T00:34:38;3.17;;;2.08;;
42666;SDS011;28280;49.646;14.130;2022-11-25T00:40:10;3.05;;;1.92;;
42666;SDS011;28280;49.646;14.130;2022-11-25T00:45:42;2.90;;;1.90;;
42666;SDS011;28280;49.646;14.130;2022-11-25T00:51:13;3.35;;;2.30;;
42666;SDS011;28280;49.646;14.130;2022-11-25T00:56:47;3.43;;;1.93;;
42666;SDS011;28280;49.646;14.130;2022-11-25T01:02:18;5.30;;;2.22;;
42666;SDS011;28280;49.646;14.130;2022-11-25T01:07:50;4.35;;;2.30;;
42666;SDS011;28280;49.646;14.130;2022-11-25T01:13:23;3.20;;;1.80;;
42666;SDS011;28280;49.646;14.130;2022-11-25T01:18:54;3.70;;;2.35;;
42666;SDS011;28280;49.646;14.130;2022-11-25T01:24:25;3.92;;;2.10;;
42666;SDS011;28280;49.646;14.130;2022-11-25T01:29:56;5.22;;;2.30;;
42666;SDS011;28280;49.646;14.130;2022-11-25T01:35:27;4.35;;;2.15;;
42666;SDS011;28280;49.646;14.130;2022-11-25T01:40:59;5.20;;;2.20;;
42666;SDS011;28280;49.646;14.130;2022-11-25T01:52:35;5.22;;;2.03;;
42666;SDS011;28280;49.646;14.130;2022-11-25T01:58:16;4.38;;;1.60;;
42666;SDS011;28280;49.646;14.130;2022-11-25T02:03:51;4.38;;;1.92;;
42666;SDS011;28280;49.646;14.130;2022-11-25T02:09:24;4.30;;;2.30;;
42666;SDS011;28280;49.646;14.130;2022-11-25T02:14:58;6.18;;;2.00;;
42666;SDS011;28280;49.646;14.130;2022-11-25T02:20:29;3.30;;;1.80;;
42666;SDS011;28280;49.646;14.130;2022-11-25T02:26:02;3.33;;;1.60;;
42666;SDS011;28280;49.646;14.130;2022-11-25T02:31:34;4.68;;;2.25;;
42666;SDS011;28280;49.646;14.130;2022-11-25T02:37:05;3.35;;;1.70;;
42666;SDS011;28280;49.646;14.130;2022-11-25T02:42:36;3.60;;;2.20;;
42666;SDS011;28280;49.646;14.130;2022-11-25T02:48:08;3.47;;;2.08;;
42666;SDS011;28280;49.646;14.130;2022-11-25T02:53:40;4.32;;;2.05;;
42666;SDS011;28280;49.646;14.130;2022-11-25T02:59:12;5.20;;;2.03;;
42666;SDS011;28280;49.646;14.130;2022-11-25T03:04:44;4.20;;;2.20;;
42666;SDS011;28280;49.646;14.130;2022-11-25T03:10:15;3.53;;;2.00;;
42666;SDS011;28280;49.646;14.130;2022-11-25T03:15:47;2.78;;;1.63;;
42666;SDS011;28280;49.646;14.130;2022-11-25T03:21:18;4.22;;;1.88;;
42666;SDS011;28280;49.646;14.130;2022-11-25T03:26:49;4.82;;;1.90;;
42666;SDS011;28280;49.646;14.130;2022-11-25T03:32:21;4.03;;;1.60;;
42666;SDS011;28280;49.646;14.130;2022-11-25T03:37:52;5.07;;;2.10;;
42666;SDS011;28280;49.646;14.130;2022-11-25T03:43:23;3.92;;;1.85;;
42666;SDS011;28280;49.646;14.130;2022-11-25T03:48:55;4.72;;;1.52;;
42666;SDS011;28280;49.646;14.130;2022-11-25T03:54:26;4.32;;;1.67;;
42666;SDS011;28280;49.646;14.130;2022-11-25T04:00:33;4.20;;;1.73;;
42666;SDS011;28280;49.646;14.130;2022-11-25T04:06:06;4.17;;;2.20;;
42666;SDS011;28280;49.646;14.130;2022-11-25T04:11:37;4.32;;;2.00;;
42666;SDS011;28280;49.646;14.130;2022-11-25T04:17:31;6.40;;;2.25;;
42666;SDS011;28280;49.646;14.130;2022-11-25T04:23:03;3.50;;;2.10;;
42666;SDS011;28280;49.646;14.130;2022-11-25T04:28:38;3.97;;;1.98;;
42666;SDS011;28280;49.646;14.130;2022-11-25T04:34:10;3.80;;;1.80;;
42666;SDS011;28280;49.646;14.130;2022-11-25T04:39:42;2.88;;;1.85;;
42666;SDS011;28280;49.646;14.130;2022-11-25T04:45:20;4.70;;;2.03;;
42666;SDS011;28280;49.646;14.130;2022-11-25T04:50:55;4.85;;;2.30;;
42666;SDS011;28280;49.646;14.130;2022-11-25T04:56:26;3.20;;;2.10;;
42666;SDS011;28280;49.646;14.130;2022-11-25T05:01:59;4.50;;;1.98;;
42666;SDS011;28280;49.646;14.130;2022-11-25T05:07:42;5.22;;;2.15;;
42666;SDS011;28280;49.646;14.130;2022-11-25T05:13:14;4.13;;;2.00;;
42666;SDS011;28280;49.646;14.130;2022-11-25T05:18:46;3.15;;;1.92;;
42666;SDS011;28280;49.646;14.130;2022-11-25T05:24:17;3.72;;;1.95;;
42666;SDS011;28280;49.646;14.130;2022-11-25T05:29:52;3.85;;;1.88;;
42666;SDS011;28280;49.646;14.130;2022-11-25T05:35:27;4.28;;;1.60;;
42666;SDS011;28280;49.646;14.130;2022-11-25T05:41:04;5.82;;;2.00;;
42666;SDS011;28280;49.646;14.130;2022-11-25T05:46:36;4.28;;;2.03;;
42666;SDS011;28280;49.646;14.130;2022-11-25T05:52:08;3.60;;;2.20;;
42666;SDS011;28280;49.646;14.130;2022-11-25T05:57:49;3.05;;;1.90;;
42666;SDS011;28280;49.646;14.130;2022-11-25T06:03:22;4.65;;;2.03;;
42666;SDS011;28280;49.646;14.130;2022-11-25T06:08:58;5.72;;;2.13;;
42666;SDS011;28280;49.646;14.130;2022-11-25T06:14:31;3.85;;;2.20;;
42666;SDS011;28280;49.646;14.130;2022-11-25T06:20:04;4.82;;;2.03;;
42666;SDS011;28280;49.646;14.130;2022-11-25T06:25:37;2.53;;;1.63;;
42666;SDS011;28280;49.646;14.130;2022-11-25T06:31:10;3.42;;;2.10;;
42666;SDS011;28280;49.646;14.130;2022-11-25T06:36:54;3.55;;;2.22;;
42666;SDS011;28280;49.646;14.130;2022-11-25T06:42:25;3.40;;;1.88;;
42666;SDS011;28280;49.646;14.130;2022-11-25T06:47:57;3.83;;;2.22;;
42666;SDS011;28280;49.646;14.130;2022-11-25T06:53:28;3.15;;;2.10;;
42666;SDS011;28280;49.646;14.130;2022-11-25T06:59:00;3.80;;;2.20;;
42666;SDS011;28280;49.646;14.130;2022-11-25T07:04:33;3.55;;;2.10;;
42666;SDS011;28280;49.646;14.130;2022-11-25T07:10:06;3.78;;;2.15;;
42666;SDS011;28280;49.646;14.130;2022-11-25T07:15:38;4.70;;;2.08;;
42666;SDS011;28280;49.646;14.130;2022-11-25T07:21:13;5.30;;;2.50;;
42666;SDS011;28280;49.646;14.130;2022-11-25T07:26:46;3.22;;;2.28;;
42666;SDS011;28280;49.646;14.130;2022-11-25T07:32:17;5.80;;;3.10;;
42666;SDS011;28280;49.646;14.130;2022-11-25T07:37:49;4.15;;;2.67;;
42666;SDS011;28280;49.646;14.130;2022-11-25T07:43:20;5.30;;;3.00;;
42666;SDS011;28280;49.646;14.130;2022-11-25T07:48:52;4.43;;;2.95;;
42666;SDS011;28280;49.646;14.130;2022-11-25T07:54:27;4.68;;;2.83;;
42666;SDS011;28280;49.646;14.130;2022-11-25T07:59:58;5.47;;;2.95;;
42666;SDS011;28280;49.646;14.130;2022-11-25T08:05:31;4.53;;;2.95;;
42666;SDS011;28280;49.646;14.130;2022-11-25T08:11:22;4.80;;;3.30;;
42666;SDS011;28280;49.646;14.130;2022-11-25T08:16:58;5.10;;;2.90;;
42666;SDS011;28280;49.646;14.130;2022-11-25T08:22:29;4.32;;;2.80;;
42666;SDS011;28280;49.646;14.130;2022-11-25T08:28:00;3.35;;;2.35;;
42666;SDS011;28280;49.646;14.130;2022-11-25T08:33:31;3.70;;;2.70;;
42666;SDS011;28280;49.646;14.130;2022-11-25T08:39:05;4.78;;;2.80;;
42666;SDS011;28280;49.646;14.130;2022-11-25T08:44:56;3.55;;;2.53;;
42666;SDS011;28280;49.646;14.130;2022-11-25T08:50:28;3.80;;;2.67;;
42666;SDS011;28280;49.646;14.130;2022-11-25T08:55:59;3.17;;;2.33;;
42666;SDS011;28280;49.646;14.130;2022-11-25T09:01:30;3.30;;;2.40;;
42666;SDS011;28280;49.646;14.130;2022-11-25T09:07:03;4.03;;;2.55;;
42666;SDS011;28280;49.646;14.130;2022-11-25T09:12:35;4.65;;;2.72;;
42666;SDS011;28280;49.646;14.130;2022-11-25T09:18:08;5.00;;;2.33;;
42666;SDS011;28280;49.646;14.130;2022-11-25T09:23:40;4.38;;;2.75;;
42666;SDS011;28280;49.646;14.130;2022-11-25T09:29:11;4.45;;;2.88;;
42666;SDS011;28280;49.646;14.130;2022-11-25T09:34:44;4.03;;;2.58;;
42666;SDS011;28280;49.646;14.130;2022-11-25T09:40:19;4.55;;;2.70;;
42666;SDS011;28280;49.646;14.130;2022-11-25T09:46:05;4.53;;;2.50;;
42666;SDS011;28280;49.646;14.130;2022-11-25T09:52:29;4.13;;;2.30;;
42666;SDS011;28280;49.646;14.130;2022-11-25T10:04:14;3.65;;;2.30;;
42666;SDS011;28280;49.646;14.130;2022-11-25T10:09:49;4.68;;;2.80;;
42666;SDS011;28280;49.646;14.130;2022-11-25T10:21:00;4.88;;;3.13;;
42666;SDS011;28280;49.646;14.130;2022-11-25T10:26:34;6.07;;;3.78;;
42666;SDS011;28280;49.646;14.130;2022-11-25T10:32:19;6.03;;;3.90;;
42666;SDS011;28280;49.646;14.130;2022-11-25T10:37:52;5.82;;;3.38;;
42666;SDS011;28280;49.646;14.130;2022-11-25T10:43:25;6.55;;;3.53;;
42666;SDS011;28280;49.646;14.130;2022-11-25T10:49:06;5.85;;;3.28;;
42666;SDS011;28280;49.646;14.130;2022-11-25T10:54:54;6.35;;;3.42;;
42666;SDS011;28280;49.646;14.130;2022-11-25T11:00:27;6.28;;;3.40;;
42666;SDS011;28280;49.646;14.130;2022-11-25T11:06:09;5.07;;;3.08;;
42666;SDS011;28280;49.646;14.130;2022-11-25T11:12:06;5.15;;;3.25;;
42666;SDS011;28280;49.646;14.130;2022-11-25T11:17:50;5.63;;;3.00;;
42666;SDS011;28280;49.646;14.130;2022-11-25T11:23:22;5.10;;;3.03;;
42666;SDS011;28280;49.646;14.130;2022-11-25T11:29:02;5.72;;;2.92;;
42666;SDS011;28280;49.646;14.130;2022-11-25T11:40:40;5.18;;;2.83;;
42666;SDS011;28280;49.646;14.130;2022-11-25T11:46:20;3.58;;;2.25;;
42666;SDS011;28280;49.646;14.130;2022-11-25T11:57:38;5.57;;;2.50;;
42666;SDS011;28280;49.646;14.130;2022-11-25T12:03:19;4.72;;;3.15;;
42666;SDS011;28280;49.646;14.130;2022-11-25T12:08:57;5.88;;;2.60;;
42666;SDS011;28280;49.646;14.130;2022-11-25T12:14:34;6.65;;;3.40;;
42666;SDS011;28280;49.646;14.130;2022-11-25T12:25:45;4.63;;;2.40;;
42666;SDS011;28280;49.646;14.130;2022-11-25T12:31:26;5.70;;;2.30;;
42666;SDS011;28280;49.646;14.130;2022-11-25T12:37:04;4.88;;;2.13;;
42666;SDS011;28280;49.646;14.130;2022-11-25T12:42:44;8.15;;;2.50;;
42666;SDS011;28280;49.646;14.130;2022-11-25T12:48:16;4.43;;;2.15;;
42666;SDS011;28280;49.646;14.130;2022-11-25T13:00:00;3.58;;;2.25;;
42666;SDS011;28280;49.646;14.130;2022-11-25T13:06:16;4.15;;;1.90;;
42666;SDS011;28280;49.646;14.130;2022-11-25T13:17:47;4.22;;;1.90;;
42666;SDS011;28280;49.646;14.130;2022-11-25T13:23:23;4.95;;;2.17;;
42666;SDS011;28280;49.646;14.130;2022-11-25T13:28:56;3.35;;;2.05;;
42666;SDS011;28280;49.646;14.130;2022-11-25T13:34:35;3.70;;;2.45;;
42666;SDS011;28280;49.646;14.130;2022-11-25T13:45:51;3.05;;;1.73;;
42666;SDS011;28280;49.646;14.130;2022-11-25T13:51:22;3.97;;;2.00;;
42666;SDS011;28280;49.646;14.130;2022-11-25T13:56:58;4.70;;;2.45;;
42666;SDS011;28280;49.646;14.130;2022-11-25T14:02:42;4.03;;;1.90;;
42666;SDS011;28280;49.646;14.130;2022-11-25T14:14:37;3.80;;;2.15;;
42666;SDS011;28280;49.646;14.130;2022-11-25T14:20:35;3.50;;;2.00;;
42666;SDS011;28280;49.646;14.130;2022-11-25T14:26:30;5.28;;;2.22;;
42666;SDS011;28280;49.646;14.130;2022-11-25T14:32:25;3.53;;;2.00;;
42666;SDS011;28280;49.646;14.130;2022-11-25T14:38:24;4.75;;;2.30;;
42666;SDS011;28280;49.646;14.130;2022-11-25T14:44:03;4.60;;;2.15;;
42666;SDS011;28280;49.646;14.130;2022-11-25T14:49:41;3.60;;;2.10;;
42666;SDS011;28280;49.646;14.130;2022-11-25T14:55:29;3.83;;;2.10;;
42666;SDS011;28280;49.646;14.130;2022-11-25T15:01:05;4.45;;;2.20;;
42666;SDS011;28280;49.646;14.130;2022-11-25T15:06:38;5.68;;;2.20;;
42666;SDS011;28280;49.646;14.130;2022-11-25T15:12:13;4.88;;;2.47;;
42666;SDS011;28280;49.646;14.130;2022-11-25T15:17:47;3.75;;;2.47;;
42666;SDS011;28280;49.646;14.130;2022-11-25T15:23:19;4.63;;;2.13;;
42666;SDS011;28280;49.646;14.130;2022-11-25T15:28:56;4.70;;;2.03;;
42666;SDS011;28280;49.646;14.130;2022-11-25T15:34:28;4.13;;;2.22;;
42666;SDS011;28280;49.646;14.130;2022-11-25T15:46:12;4.50;;;2.33;;
42666;SDS011;28280;49.646;14.130;2022-11-25T15:51:52;5.63;;;2.90;;
42666;SDS011;28280;49.646;14.130;2022-11-25T15:57:32;5.30;;;2.90;;
42666;SDS011;28280;49.646;14.130;2022-11-25T16:03:16;5.65;;;2.65;;
42666;SDS011;28280;49.646;14.130;2022-11-25T16:08:59;5.93;;;3.00;;
42666;SDS011;28280;49.646;14.130;2022-11-25T16:14:33;5.40;;;2.53;;
42666;SDS011;28280;49.646;14.130;2022-11-25T16:20:15;5.90;;;2.72;;
42666;SDS011;28280;49.646;14.130;2022-11-25T16:26:00;5.05;;;2.65;;
42666;SDS011;28280;49.646;14.130;2022-11-25T16:31:32;6.25;;;2.65;;
42666;SDS011;28280;49.646;14.130;2022-11-25T16:37:04;3.75;;;2.50;;
42666;SDS011;28280;49.646;14.130;2022-11-25T16:42:35;4.65;;;2.53;;
42666;SDS011;28280;49.646;14.130;2022-11-25T16:48:13;6.68;;;2.70;;
42666;SDS011;28280;49.646;14.130;2022-11-25T16:53:47;6.70;;;2.60;;
42666;SDS011;28280;49.646;14.130;2022-11-25T16:59:19;4.93;;;2.47;;
42666;SDS011;28280;49.646;14.130;2022-11-25T17:04:58;3.40;;;2.42;;
42666;SDS011;28280;49.646;14.130;2022-11-25T17:10:43;4.47;;;2.42;;
42666;SDS011;28280;49.646;14.130;2022-11-25T17:16:16;4.60;;;2.50;;
42666;SDS011;28280;49.646;14.130;2022-11-25T17:21:50;5.00;;;2.50;;
42666;SDS011;28280;49.646;14.130;2022-11-25T17:27:28;5.03;;;2.67;;
42666;SDS011;28280;49.646;14.130;2022-11-25T17:33:05;4.20;;;2.50;;
42666;SDS011;28280;49.646;14.130;2022-11-25T17:38:43;4.38;;;2.33;;
42666;SDS011;28280;49.646;14.130;2022-11-25T17:44:24;6.03;;;2.80;;
42666;SDS011;28280;49.646;14.130;2022-11-25T17:49:57;3.88;;;2.25;;
42666;SDS011;28280;49.646;14.130;2022-11-25T17:55:28;4.63;;;2.63;;
42666;SDS011;28280;49.646;14.130;2022-11-25T18:01:00;4.80;;;2.75;;
42666;SDS011;28280;49.646;14.130;2022-11-25T18:06:31;5.60;;;2.80;;
42666;SDS011;28280;49.646;14.130;2022-11-25T18:12:06;5.68;;;3.10;;
42666;SDS011;28280;49.646;14.130;2022-11-25T18:17:40;3.65;;;2.47;;
42666;SDS011;28280;49.646;14.130;2022-11-25T18:23:12;5.60;;;2.90;;
42666;SDS011;28280;49.646;14.130;2022-11-25T18:28:43;5.57;;;3.08;;
42666;SDS011;28280;49.646;14.130;2022-11-25T18:34:14;6.60;;;3.40;;
42666;SDS011;28280;49.646;14.130;2022-11-25T18:39:46;5.80;;;3.38;;
42666;SDS011;28280;49.646;14.130;2022-11-25T18:45:19;6.22;;;3.55;;
42666;SDS011;28280;49.646;14.130;2022-11-25T18:50:53;6.93;;;3.78;;
42666;SDS011;28280;49.646;14.130;2022-11-25T18:56:25;5.85;;;3.60;;
42666;SDS011;28280;49.646;14.130;2022-11-25T19:01:57;6.13;;;3.63;;
42666;SDS011;28280;49.646;14.130;2022-11-25T19:07:29;7.57;;;4.40;;
42666;SDS011;28280;49.646;14.130;2022-11-25T19:13:01;6.80;;;4.07;;
42666;SDS011;28280;49.646;14.130;2022-11-25T19:18:36;6.40;;;3.97;;
42666;SDS011;28280;49.646;14.130;2022-11-25T19:24:11;8.40;;;4.22;;
42666;SDS011;28280;49.646;14.130;2022-11-25T19:29:43;7.82;;;4.25;;
42666;SDS011;28280;49.646;14.130;2022-11-25T19:35:19;8.27;;;4.47;;
42666;SDS011;28280;49.646;14.130;2022-11-25T19:40:55;8.43;;;4.03;;
42666;SDS011;28280;49.646;14.130;2022-11-25T19:46:27;8.80;;;4.47;;
42666;SDS011;28280;49.646;14.130;2022-11-25T19:52:20;7.63;;;3.95;;
42666;SDS011;28280;49.646;14.130;2022-11-25T19:57:53;7.57;;;4.03;;
42666;SDS011;28280;49.646;14.130;2022-11-25T20:03:25;6.68;;;4.10;;
42666;SDS011;28280;49.646;14.130;2022-11-25T20:08:58;8.27;;;4.25;;
42666;SDS011;28280;49.646;14.130;2022-11-25T20:14:37;7.10;;;4.10;;
42666;SDS011;28280;49.646;14.130;2022-11-25T20:20:14;6.15;;;3.58;;
42666;SDS011;28280;49.646;14.130;2022-11-25T20:25:47;7.30;;;4.60;;
42666;SDS011;28280;49.646;14.130;2022-11-25T20:31:19;6.78;;;4.13;;
42666;SDS011;28280;49.646;14.130;2022-11-25T20:36:50;7.32;;;4.28;;
42666;SDS011;28280;49.646;14.130;2022-11-25T20:42:21;7.75;;;4.65;;
42666;SDS011;28280;49.646;14.130;2022-11-25T20:47:53;7.05;;;4.13;;
42666;SDS011;28280;49.646;14.130;2022-11-25T20:53:24;6.88;;;4.05;;
42666;SDS011;28280;49.646;14.130;2022-11-25T20:58:58;8.47;;;4.30;;
42666;SDS011;28280;49.646;14.130;2022-11-25T21:04:29;7.28;;;4.30;;
42666;SDS011;28280;49.646;14.130;2022-11-25T21:10:00;6.22;;;4.32;;
42666;SDS011;28280;49.646;14.130;2022-11-25T21:15:31;6.60;;;4.03;;
42666;SDS011;28280;49.646;14.130;2022-11-25T21:21:03;6.60;;;4.07;;
42666;SDS011;28280;49.646;14.130;2022-11-25T21:26:34;7.05;;;3.35;;
42666;SDS011;28280;49.646;14.130;2022-11-25T21:32:25;5.65;;;3.78;;
42666;SDS011;28280;49.646;14.130;2022-11-25T21:37:57;4.97;;;3.45;;
42666;SDS011;28280;49.646;14.130;2022-11-25T21:43:32;5.68;;;3.58;;
42666;SDS011;28280;49.646;14.130;2022-11-25T21:49:08;5.65;;;3.42;;
42666;SDS011;28280;49.646;14.130;2022-11-25T21:54:41;5.38;;;3.45;;
42666;SDS011;28280;49.646;14.130;2022-11-25T22:00:19;4.80;;;3.35;;
42666;SDS011;28280;49.646;14.130;2022-11-25T22:05:55;6.10;;;3.65;;
42666;SDS011;28280;49.646;14.130;2022-11-25T22:11:28;5.93;;;3.22;;
42666;SDS011;28280;49.646;14.130;2022-11-25T22:17:09;6.32;;;3.70;;
42666;SDS011;28280;49.646;14.130;2022-11-25T22:22:44;5.53;;;3.38;;
42666;SDS011;28280;49.646;14.130;2022-11-25T22:28:16;5.95;;;4.20;;
42666;SDS011;28280;49.646;14.130;2022-11-25T22:33:48;5.50;;;3.55;;
42666;SDS011;28280;49.646;14.130;2022-11-25T22:39:24;7.13;;;4.40;;
42666;SDS011;28280;49.646;14.130;2022-11-25T22:44:56;8.32;;;4.13;;
42666;SDS011;28280;49.646;14.130;2022-11-25T22:50:29;6.70;;;4.50;;
42666;SDS011;28280;49.646;14.130;2022-11-25T22:56:02;6.07;;;4.07;;
42666;SDS011;28280;49.646;14.130;2022-11-25T23:01:33;6.63;;;4.55;;
42666;SDS011;28280;49.646;14.130;2022-11-25T23:07:09;6.18;;;4.05;;
42666;SDS011;28280;49.646;14.130;2022-11-25T23:12:42;6.60;;;4.45;;
42666;SDS011;28280;49.646;14.130;2022-11-25T23:18:14;7.00;;;3.92;;
42666;SDS011;28280;49.646;14.130;2022-11-25T23:23:46;7.03;;;4.70;;
42666;SDS011;28280;49.646;14.130;2022-11-25T23:29:17;5.03;;;3.78;;
42666;SDS011;28280;49.646;14.130;2022-11-25T23:34:48;5.85;;;3.92;;
42666;SDS011;28280;49.646;14.130;2022-11-25T23:40:20;5.30;;;3.85;;
42666;SDS011;28280;49.646;14.130;2022-11-25T23:45:55;7.10;;;4.40;;
42666;SDS011;28280;49.646;14.130;2022-11-25T23:51:27;6.03;;;3.90;;
42666;SDS011;28280;49.646;14.130;2022-11-25T23:56:59;5.20;;;3.53;;
